createdAt,value
2022-08-17T00:00:34.472Z,98429.46
2022-08-17T00:05:48.024Z,98432.50
2022-08-17T00:10:52.947Z,98431.14
2022-08-17T00:15:59.941Z,98428.38
2022-08-17T00:21:05.528Z,98424.73
2022-08-17T00:26:14.249Z,98422.83
2022-08-17T00:31:17.587Z,98415.67
2022-08-17T00:36:21.538Z,98416.39
2022-08-17T00:41:27.163Z,98428.50
2022-08-17T00:46:34.949Z,98424.65
2022-08-17T00:51:44.261Z,98425.85
2022-08-17T00:56:54.081Z,98428.70
2022-08-17T01:01:58.066Z,98434.08
2022-08-17T01:07:03.281Z,98430.11
2022-08-17T01:12:09.190Z,98429.98
2022-08-17T01:17:12.442Z,98427.80
2022-08-17T01:22:16.651Z,98422.62
2022-08-17T01:27:21.492Z,98418.23
2022-08-17T01:32:26.381Z,98422.44
2022-08-17T01:37:37.858Z,98424.30
2022-08-17T01:42:48.749Z,98423.08
2022-08-17T01:47:53.016Z,98426.18
2022-08-17T01:53:00.033Z,98421.55
2022-08-17T01:58:03.167Z,98419.08
2022-08-17T02:03:07.914Z,98422.46
2022-08-17T02:08:19.863Z,98429.62
2022-08-17T02:13:23.412Z,98435.84
2022-08-17T02:18:27.391Z,98442.85
2022-08-17T02:23:34.387Z,98445.05
2022-08-17T02:28:37.207Z,98441.78
2022-08-17T02:33:42.935Z,98447.59
2022-08-17T02:38:46.491Z,98453.34
2022-08-17T02:43:49.398Z,98456.08
2022-08-17T02:48:52.701Z,98453.98
2022-08-17T02:54:39.225Z,98458.27
2022-08-17T02:59:19.155Z,98453.34
2022-08-17T03:04:22.497Z,98452.21
2022-08-17T03:09:25.375Z,98452.02
2022-08-17T03:14:28.457Z,98448.16
2022-08-17T03:19:31.359Z,98443.94
2022-08-17T03:24:34.960Z,98449.31
2022-08-17T03:29:39.897Z,98448.45
2022-08-17T03:34:43.329Z,98445.41
2022-08-17T03:39:46.228Z,98455.70
2022-08-17T03:44:50.872Z,98460.90
2022-08-17T03:50:12.690Z,98469.79
2022-08-17T03:55:36.541Z,98469.73
2022-08-17T04:00:45.542Z,98473.27
2022-08-17T04:05:48.430Z,98476.81
2022-08-17T04:10:51.297Z,98482.90
2022-08-17T04:15:55.633Z,98491.77
2022-08-17T04:20:58.851Z,98490.36
2022-08-17T04:26:01.755Z,98482.36
2022-08-17T04:31:04.846Z,98483.48
2022-08-17T04:36:11.723Z,98483.06
2022-08-17T04:41:33.995Z,98486.30
2022-08-17T04:46:37.261Z,98489.25
2022-08-17T04:51:51.613Z,98498.13
2022-08-17T04:56:59.190Z,98504.39
2022-08-17T05:02:02.196Z,98501.38
2022-08-17T05:07:05.084Z,98504.98
2022-08-17T05:12:08.168Z,98507.96
2022-08-17T05:17:11.312Z,98511.05
2022-08-17T05:22:14.844Z,98510.48
2022-08-17T05:27:19.057Z,98509.53
2022-08-17T05:32:38.184Z,98506.35
2022-08-17T05:37:42.552Z,98509.09
2022-08-17T05:42:45.388Z,98512.40
2022-08-17T05:47:48.318Z,98515.73
2022-08-17T05:53:10.538Z,98520.25
2022-08-17T05:58:42.255Z,98518.30
2022-08-17T06:04:03.274Z,98522.43
2022-08-17T06:09:34.199Z,98521.83
2022-08-17T06:15:01.517Z,98523.07
2022-08-17T06:20:12.354Z,98519.88
2022-08-17T06:25:33.592Z,98520.16
2022-08-17T06:31:01.548Z,98516.06
2022-08-17T06:36:40.604Z,98518.60
2022-08-17T06:42:59.902Z,98522.79
2022-08-17T06:47:55.993Z,98520.25
2022-08-17T06:53:28.370Z,98524.87
2022-08-17T06:58:33.439Z,98524.59
2022-08-17T07:03:41.666Z,98523.77
2022-08-17T07:08:57.678Z,98531.13
2022-08-17T07:14:00.443Z,98530.83
2022-08-17T07:19:06.154Z,98539.20
2022-08-17T07:24:29.960Z,98534.93
2022-08-17T07:29:40.018Z,98534.91
2022-08-17T07:35:11.118Z,98534.63
2022-08-17T07:40:18.135Z,98531.88
2022-08-17T07:45:39.635Z,98527.06
2022-08-17T07:50:42.602Z,98525.86
2022-08-17T07:55:54.025Z,98521.45
2022-08-17T08:01:11.288Z,98520.44
2022-08-17T08:06:24.851Z,98522.55
2022-08-17T08:11:39.262Z,98525.08
2022-08-17T08:16:59.136Z,98522.69
2022-08-17T08:22:10.325Z,98520.70
2022-08-17T08:27:40.232Z,98517.69
2022-08-17T08:33:11.083Z,98517.16
2022-08-17T08:38:36.469Z,98513.18
2022-08-17T08:44:06.153Z,98506.38
2022-08-17T08:49:45.126Z,98503.41
2022-08-17T08:55:16.977Z,98508.17
2022-08-17T09:00:24.145Z,98507.22
2022-08-17T09:05:48.760Z,98505.08
2022-08-17T09:10:57.625Z,98504.61
2022-08-17T09:16:09.670Z,98505.08
2022-08-17T09:21:28.791Z,98497.09
2022-08-17T09:27:03.659Z,98503.67
2022-08-17T09:32:17.796Z,98509.56
2022-08-17T09:37:32.601Z,98507.33
2022-08-17T09:42:47.600Z,98508.84
2022-08-17T09:47:58.176Z,98509.10
2022-08-17T09:53:01.833Z,98513.92
2022-08-17T09:58:23.565Z,98514.17
2022-08-17T10:03:49.133Z,98512.82
2022-08-17T10:08:52.157Z,98510.41
2022-08-17T10:14:36.373Z,98512.12
2022-08-17T10:19:54.044Z,98518.34
2022-08-17T10:25:23.627Z,98509.95
2022-08-17T10:30:33.324Z,98505.54
2022-08-17T10:35:52.559Z,98507.81
2022-08-17T10:40:59.971Z,98513.51
2022-08-17T10:46:30.466Z,98513.29
2022-08-17T10:51:42.127Z,98514.70
2022-08-17T10:56:50.484Z,98512.48
2022-08-17T11:02:04.694Z,98510.56
2022-08-17T11:07:19.292Z,98509.75
2022-08-17T11:12:48.951Z,98511.35
2022-08-17T11:18:06.786Z,98507.73
2022-08-17T11:23:50.460Z,98500.04
2022-08-17T11:28:59.668Z,98497.76
2022-08-17T11:34:18.597Z,98492.27
2022-08-17T11:39:37.676Z,98493.97
2022-08-17T11:44:52.563Z,98495.79
2022-08-17T11:50:38.756Z,98490.42
2022-08-17T11:55:44.832Z,98490.90
2022-08-17T12:00:52.031Z,98482.84
2022-08-17T12:06:30.215Z,98483.73
2022-08-17T12:12:11.041Z,98488.34
2022-08-17T12:17:20.894Z,98490.43
2022-08-17T12:23:01.306Z,98483.27
2022-08-17T12:28:20.170Z,98472.92
2022-08-17T12:33:28.408Z,98468.31
2022-08-17T12:38:34.901Z,98472.48
2022-08-17T12:43:38.086Z,98473.09
2022-08-17T12:48:59.924Z,98477.99
2022-08-17T12:54:03.420Z,98475.63
2022-08-17T12:59:07.249Z,98473.01
2022-08-17T13:04:15.763Z,98473.04
2022-08-17T13:09:35.908Z,98475.81
2022-08-17T13:14:46.552Z,98476.59
2022-08-17T13:19:51.216Z,98474.31
2022-08-17T13:24:58.156Z,98476.77
2022-08-17T13:30:12.458Z,98472.97
2022-08-17T13:35:38.954Z,98469.63
2022-08-17T13:40:50.297Z,98468.16
2022-08-17T13:45:53.488Z,98461.98
2022-08-17T13:50:56.340Z,98459.95
2022-08-17T13:56:33.479Z,98467.71
2022-08-17T14:01:53.197Z,98479.59
2022-08-17T14:07:19.918Z,98480.83
2022-08-17T14:12:25.177Z,98479.92
2022-08-17T14:17:29.597Z,98482.77
2022-08-17T14:22:35.706Z,98480.93
2022-08-17T14:27:41.864Z,98473.77
2022-08-17T14:32:58.253Z,98472.79
2022-08-17T14:38:06.012Z,98472.80
2022-08-17T14:43:08.964Z,98472.86
2022-08-17T14:48:12.021Z,98470.96
2022-08-17T14:53:16.554Z,98473.42
2022-08-17T14:58:20.046Z,98478.89
2022-08-17T15:03:23.596Z,98482.44
2022-08-17T15:08:26.462Z,98480.66
2022-08-17T15:13:29.942Z,98484.45
2022-08-17T15:18:33.060Z,98483.08
2022-08-17T15:23:36.395Z,98476.58
2022-08-17T15:28:39.295Z,98478.11
2022-08-17T15:33:42.218Z,98484.61
2022-08-17T15:38:46.132Z,98483.93
2022-08-17T15:43:52.660Z,98489.12
2022-08-17T15:49:00.113Z,98489.36
2022-08-17T15:54:18.671Z,98489.46
2022-08-17T15:59:25.590Z,98500.57
2022-08-17T16:04:30.952Z,98510.87
2022-08-17T16:09:34.822Z,98523.09
2022-08-17T16:14:37.715Z,98521.71
2022-08-17T16:19:41.444Z,98523.50
2022-08-17T16:24:56.868Z,98522.36
2022-08-17T16:30:01.204Z,98527.01
2022-08-17T16:35:08.277Z,98532.71
2022-08-17T16:40:11.834Z,98540.05
2022-08-17T16:45:23.995Z,98540.59
2022-08-17T16:50:27.079Z,98542.73
2022-08-17T16:55:30.229Z,98547.76
2022-08-17T17:00:33.847Z,98547.95
2022-08-17T17:06:07.426Z,98555.65
2022-08-17T17:11:15.616Z,98551.63
2022-08-17T17:16:47.117Z,98557.34
2022-08-17T17:22:03.899Z,98552.73
2022-08-17T17:27:37.161Z,98552.23
2022-08-17T17:33:03.608Z,98563.23
2022-08-17T17:38:12.785Z,98574.44
2022-08-17T17:43:38.198Z,98576.13
2022-08-17T17:48:42.204Z,98582.44
2022-08-17T17:54:24.198Z,98586.02
2022-08-17T17:59:34.892Z,98591.55
2022-08-17T18:04:48.964Z,98599.90
2022-08-17T18:10:04.245Z,98601.98
2022-08-17T18:15:35.689Z,98605.92
2022-08-17T18:20:46.513Z,98611.54
2022-08-17T18:25:58.835Z,98615.83
2022-08-17T18:31:07.727Z,98617.14
2022-08-17T18:36:11.703Z,98616.32
2022-08-17T18:41:30.583Z,98617.38
2022-08-17T18:46:37.835Z,98619.38
2022-08-17T18:51:43.261Z,98621.45
2022-08-17T18:56:55.374Z,98619.89
2022-08-17T19:02:07.585Z,98616.88
2022-08-17T19:07:16.852Z,98618.73
2022-08-17T19:12:39.486Z,98620.36
2022-08-17T19:17:55.525Z,98623.89
2022-08-17T19:23:22.904Z,98624.94
2022-08-17T19:28:36.933Z,98624.47
2022-08-17T19:33:40.067Z,98624.46
2022-08-17T19:38:51.578Z,98631.77
2022-08-17T19:44:14.814Z,98639.48
2022-08-17T19:49:46.763Z,98646.66
2022-08-17T19:55:01.109Z,98653.64
2022-08-17T20:00:13.761Z,98655.46
2022-08-17T20:06:00.880Z,98658.86
2022-08-17T20:11:02.976Z,98651.39
2022-08-17T20:16:07.235Z,98649.72
2022-08-17T20:21:37.315Z,98649.23
2022-08-17T20:26:58.737Z,98656.41
2022-08-17T20:32:02.481Z,98665.18
2022-08-17T20:37:14.466Z,98664.94
2022-08-17T20:42:19.946Z,98660.79
2022-08-17T20:47:30.857Z,98669.74
2022-08-17T20:52:53.366Z,98671.56
2022-08-17T20:57:56.833Z,98669.21
2022-08-17T21:03:23.823Z,98659.36
2022-08-17T21:08:29.743Z,98656.63
2022-08-17T21:13:49.215Z,98654.23
2022-08-17T21:19:08.716Z,98645.73
2022-08-17T21:24:20.516Z,98652.36
2022-08-17T21:29:31.105Z,98657.55
2022-08-17T21:34:44.349Z,98667.95
2022-08-17T21:39:51.913Z,98667.17
2022-08-17T21:45:00.655Z,98663.88
2022-08-17T21:50:24.500Z,98662.20
2022-08-17T21:55:30.929Z,98656.34
2022-08-17T22:00:34.044Z,98654.58
2022-08-17T22:05:39.601Z,98640.86
2022-08-17T22:10:45.445Z,98649.16
2022-08-17T22:16:27.855Z,98641.16
2022-08-17T22:21:32.099Z,98633.67
2022-08-17T22:27:00.328Z,98635.48
2022-08-17T22:32:03.730Z,98626.08
2022-08-17T22:37:27.959Z,98621.60
2022-08-17T22:42:31.366Z,98622.31
2022-08-17T22:47:39.597Z,98631.58
2022-08-17T22:53:13.531Z,98636.94
2022-08-17T22:58:39.018Z,98635.06
2022-08-17T23:03:55.681Z,98629.46
2022-08-17T23:08:58.874Z,98627.33
2022-08-17T23:14:02.444Z,98618.43
2022-08-17T23:19:05.392Z,98630.34
2022-08-17T23:24:09.096Z,98636.95
2022-08-17T23:29:12.122Z,98642.73
2022-08-17T23:34:18.425Z,98645.04
2022-08-17T23:39:27.749Z,98637.86
2022-08-17T23:44:31.415Z,98639.70
2022-08-17T23:49:36.366Z,98636.22
2022-08-17T23:54:44.273Z,98636.88
2022-08-17T23:59:47.378Z,98650.32
